Time;durP1;ratioP1;P1;durP2;ratioP2;P2;SDS_P1;SDS_P2;PMS_P1;PMS_P2;Temp;Humidity;BMP_temperature;BMP_pressure;BME280_temperature;BME280_humidity;BME280_pressure;Samples;Min_cycle;Max_cycle;Signal;HPM_P1;HPM_P2
2024/04/04 00:00:25;;;;;;;3.70;2.40;;;10.30;99.90;;;9.81;100.00;97438.75;5046858;28;20469;-72
2024/04/04 00:02:52;;;;;;;2.10;1.53;;;10.30;99.90;;;9.76;100.00;97442.13;5042104;28;20874;-73
2024/04/04 00:05:20;;;;;;;6.27;2.30;;;10.40;99.90;;;9.73;100.00;97441.72;5040183;28;20507;-72
2024/04/04 00:07:47;;;;;;;1.60;1.50;;;10.50;99.90;;;9.66;100.00;97443.69;5038612;28;20484;-74
2024/04/04 00:10:14;;;;;;;2.50;1.73;;;10.50;99.00;;;9.74;100.00;97446.06;5040299;28;20470;-74
2024/04/04 00:12:42;;;;;;;2.20;1.60;;;10.50;99.20;;;9.83;100.00;97455.53;5040367;28;20553;-72
2024/04/04 00:15:09;;;;;;;2.47;1.67;;;10.60;98.90;;;9.71;100.00;97444.69;5034657;28;20569;-71
2024/04/04 00:17:36;;;;;;;2.37;1.50;;;10.60;98.30;;;9.73;100.00;97452.53;5046690;28;20580;-72
2024/04/04 00:20:04;;;;;;;3.17;2.20;;;10.60;98.10;;;9.93;100.00;97455.00;5045263;28;20472;-72
2024/04/04 00:22:32;;;;;;;3.20;1.90;;;10.60;98.50;;;9.97;100.00;97466.19;5041346;28;20479;-72
2024/04/04 00:24:59;;;;;;;1.80;1.27;;;10.60;98.60;;;10.16;100.00;97462.41;5040054;28;20491;-71
2024/04/04 00:27:26;;;;;;;4.60;1.87;;;10.60;99.10;;;10.02;100.00;97460.94;5048285;28;21060;-72
2024/04/04 00:29:52;;;;;;;8.93;1.90;;;10.70;98.40;;;10.07;100.00;97458.38;5032191;28;20513;-72
2024/04/04 00:32:19;;;;;;;1.53;1.43;;;10.70;98.30;;;10.15;100.00;97473.44;5051262;28;20477;-71
2024/04/04 00:34:45;;;;;;;3.13;2.13;;;10.80;97.30;;;10.14;100.00;97469.91;5038786;28;20498;-71
2024/04/04 00:37:13;;;;;;;3.37;1.80;;;10.80;97.20;;;10.19;100.00;97471.94;5040093;28;20558;-71
2024/04/04 00:39:40;;;;;;;1.30;1.10;;;10.80;97.10;;;10.20;100.00;97479.81;5045871;28;21177;-71
2024/04/04 00:42:07;;;;;;;2.47;1.63;;;10.80;97.10;;;10.23;100.00;97467.75;5055000;28;20557;-72
2024/04/04 00:44:34;;;;;;;4.67;1.43;;;10.80;97.30;;;10.05;100.00;97453.22;5045352;28;20472;-71
2024/04/04 00:47:02;;;;;;;1.40;1.30;;;10.80;97.20;;;9.80;100.00;97404.72;5034720;28;20478;-72
2024/04/04 00:49:28;;;;;;;2.63;1.50;;;10.90;97.60;;;10.27;100.00;97458.13;5045705;28;20477;-72
2024/04/04 00:51:55;;;;;;;1.50;1.20;;;10.90;96.90;;;10.31;100.00;97463.91;5033897;28;20556;-72
2024/04/04 00:54:22;;;;;;;3.63;1.37;;;10.90;97.10;;;10.32;100.00;97462.84;5040709;28;20480;-72
2024/04/04 00:56:50;;;;;;;2.53;1.27;;;10.90;97.00;;;10.30;100.00;97470.34;5047957;28;20954;-73
2024/04/04 00:59:16;;;;;;;5.23;1.50;;;11.00;96.80;;;10.33;100.00;97462.63;5043886;28;20500;-72
2024/04/04 01:01:45;;;;;;;1.00;1.00;;;11.00;96.80;;;10.40;100.00;97465.25;5035918;28;20695;-71
2024/04/04 01:04:11;;;;;;;2.33;1.10;;;11.00;96.40;;;10.38;100.00;97469.22;5042914;28;20485;-71
2024/04/04 01:06:41;;;;;;;3.83;1.53;;;11.00;96.40;;;10.40;100.00;97467.94;5038656;28;20484;-71
2024/04/04 01:09:07;;;;;;;2.10;1.57;;;11.00;96.60;;;10.27;100.00;97476.22;5044537;28;21108;-72
2024/04/04 01:11:34;;;;;;;3.33;1.60;;;11.00;96.20;;;10.30;100.00;97478.47;5045962;28;20970;-72
2024/04/04 01:14:02;;;;;;;3.37;1.60;;;11.00;96.40;;;10.34;100.00;97480.47;5038631;28;20525;-72
2024/04/04 01:16:29;;;;;;;1.77;1.37;;;11.00;96.70;;;10.27;100.00;97476.22;5036901;28;20485;-73
2024/04/04 01:18:55;;;;;;;1.70;1.60;;;11.00;96.80;;;10.43;100.00;97486.41;5038582;28;21018;-72
2024/04/04 01:21:22;;;;;;;2.00;1.40;;;11.00;97.00;;;10.41;100.00;97487.69;5044592;28;20478;-73
2024/04/04 01:23:50;;;;;;;1.60;1.40;;;11.00;96.80;;;10.38;100.00;97488.94;5035033;28;20491;-71
2024/04/04 01:26:17;;;;;;;1.83;1.50;;;11.00;96.60;;;10.39;100.00;97498.72;5038788;28;20472;-71
2024/04/04 01:28:44;;;;;;;1.87;1.40;;;11.00;96.90;;;10.37;100.00;97497.28;5044668;28;20522;-71
2024/04/04 01:31:12;;;;;;;3.07;1.70;;;11.00;96.70;;;9.83;100.00;97430.41;5061606;28;20499;-71
2024/04/04 01:33:38;;;;;;;2.80;1.30;;;11.00;96.70;;;10.35;100.00;97492.09;5036612;28;20481;-71
2024/04/04 01:36:07;;;;;;;1.47;1.37;;;11.00;97.40;;;10.37;100.00;97494.56;5046431;28;20500;-71
2024/04/04 01:38:33;;;;;;;3.33;1.37;;;11.00;97.10;;;10.34;100.00;97503.94;5044256;28;20472;-72
2024/04/04 01:41:01;;;;;;;2.60;2.13;;;11.00;97.00;;;10.38;100.00;97499.72;5042358;28;20995;-71
2024/04/04 01:43:27;;;;;;;2.50;1.53;;;11.00;97.10;;;10.27;100.00;97504.03;5028742;28;20529;-72
2024/04/04 01:45:55;;;;;;;3.10;1.80;;;11.00;97.30;;;10.35;100.00;97502.88;5052431;28;20495;-73
2024/04/04 01:48:21;;;;;;;1.93;1.73;;;11.00;97.50;;;10.32;100.00;97503.34;5044714;28;20541;-73
2024/04/04 01:50:48;;;;;;;2.40;1.60;;;11.00;97.50;;;10.26;100.00;97494.28;5044941;28;20594;-73
2024/04/04 01:53:14;;;;;;;1.87;1.77;;;11.00;97.00;;;10.24;100.00;97495.56;5041216;28;20470;-72
2024/04/04 01:55:42;;;;;;;2.40;1.87;;;11.00;97.10;;;10.20;100.00;97495.19;5044307;28;20549;-71
2024/04/04 01:58:09;;;;;;;3.53;1.87;;;10.90;97.30;;;10.14;100.00;97496.06;5043443;28;20488;-72
2024/04/04 02:00:36;;;;;;;2.10;1.80;;;10.80;97.60;;;9.97;100.00;97496.69;5042282;28;20480;-72
2024/04/04 02:03:04;;;;;;;3.67;1.97;;;10.70;98.50;;;9.95;100.00;97498.78;5043468;28;20489;-73
2024/04/04 02:05:33;;;;;;;3.30;2.20;;;10.60;99.40;;;10.01;100.00;97486.25;5044470;28;20488;-72
2024/04/04 02:07:59;;;;;;;2.27;1.80;;;10.70;99.90;;;10.09;100.00;97498.63;5040942;28;20473;-72
2024/04/04 02:10:27;;;;;;;5.20;2.10;;;10.70;99.80;;;10.04;100.00;97500.16;5045249;28;20488;-72
2024/04/04 02:12:54;;;;;;;3.17;1.93;;;10.70;99.90;;;10.04;100.00;97502.00;5039636;28;20473;-72
2024/04/04 02:15:22;;;;;;;2.67;1.83;;;10.70;99.90;;;10.07;100.00;97506.94;5041814;28;20480;-72
2024/04/04 02:17:48;;;;;;;3.13;1.83;;;10.70;99.90;;;10.12;100.00;97507.13;5036315;28;20464;-71
2024/04/04 02:20:16;;;;;;;3.40;2.10;;;10.70;99.40;;;10.03;100.00;97500.34;5046390;28;21276;-72
2024/04/04 02:22:42;;;;;;;3.90;1.80;;;10.70;98.60;;;10.07;100.00;97493.44;5036504;28;20461;-73
2024/04/04 02:25:10;;;;;;;4.13;2.03;;;10.70;98.50;;;10.07;100.00;97515.88;5043807;28;21140;-72
2024/04/04 02:27:37;;;;;;;2.00;1.90;;;10.70;97.20;;;10.04;100.00;97508.25;5040135;28;20477;-71
2024/04/04 02:30:05;;;;;;;4.77;1.87;;;10.70;96.60;;;10.15;100.00;97519.31;5040148;28;20972;-72
2024/04/04 02:32:33;;;;;;;2.90;2.20;;;10.80;96.50;;;10.10;100.00;97517.31;5038557;28;21016;-71
2024/04/04 02:35:00;;;;;;;2.13;1.90;;;10.70;96.40;;;10.02;100.00;97520.31;5043723;28;20501;-72
2024/04/04 02:37:27;;;;;;;2.33;2.13;;;10.70;96.00;;;9.86;100.00;97519.84;5043423;28;20487;-72
2024/04/04 02:39:54;;;;;;;2.80;2.37;;;10.60;96.50;;;9.89;100.00;97518.56;5043226;28;20615;-72
2024/04/04 02:42:20;;;;;;;2.97;2.27;;;10.60;97.70;;;9.81;100.00;97517.00;5040641;28;20533;-73
2024/04/04 02:44:48;;;;;;;3.20;2.47;;;10.50;98.30;;;9.81;100.00;97508.91;5042509;28;20584;-72
2024/04/04 02:47:14;;;;;;;2.90;2.63;;;10.50;98.80;;;9.57;100.00;97508.69;5043940;28;20563;-72
2024/04/04 02:49:43;;;;;;;4.63;2.73;;;10.40;99.20;;;9.54;100.00;97497.50;5043295;28;20473;-72
2024/04/04 02:52:09;;;;;;;2.67;2.47;;;10.30;99.60;;;9.60;100.00;97505.53;5059226;28;20481;-72
2024/04/04 02:54:37;;;;;;;6.17;3.60;;;10.40;99.80;;;9.69;100.00;97526.84;5039087;28;20488;-72
2024/04/04 02:57:03;;;;;;;3.40;2.87;;;10.30;99.90;;;9.69;100.00;97527.66;5032719;28;20474;-72
2024/04/04 02:59:31;;;;;;;3.23;2.63;;;10.40;99.90;;;9.76;100.00;97530.31;5040273;28;20492;-73
2024/04/04 03:01:57;;;;;;;3.30;2.93;;;10.40;99.10;;;9.67;100.00;97528.97;5045934;28;20814;-72
2024/04/04 03:04:25;;;;;;;4.13;3.30;;;10.30;99.10;;;9.63;100.00;97524.00;5041583;28;20986;-72
2024/04/04 03:06:53;;;;;;;2.77;2.17;;;10.30;99.30;;;9.81;100.00;97524.25;5039249;28;20868;-72
2024/04/04 03:09:20;;;;;;;2.77;2.50;;;10.40;99.90;;;9.74;100.00;97525.16;5042750;28;20488;-71
2024/04/04 03:11:46;;;;;;;3.30;2.60;;;10.40;99.70;;;9.68;100.00;97525.22;5038603;28;20867;-71
2024/04/04 03:14:14;;;;;;;4.50;2.60;;;10.40;99.30;;;9.79;100.00;97529.88;5035249;28;20484;-72
2024/04/04 03:16:40;;;;;;;2.60;2.40;;;10.40;99.70;;;9.77;100.00;97534.66;5041358;28;21070;-71
2024/04/04 03:19:07;;;;;;;3.00;2.40;;;10.40;99.40;;;9.45;100.00;97473.53;5041749;28;20492;-71
2024/04/04 03:21:33;;;;;;;3.30;2.30;;;10.40;99.60;;;9.73;100.00;97518.09;5027571;28;20582;-72
2024/04/04 03:24:02;;;;;;;2.53;2.40;;;10.40;99.50;;;9.80;100.00;97534.22;5036832;28;21114;-72
2024/04/04 03:26:28;;;;;;;4.20;2.77;;;10.40;99.10;;;9.76;100.00;97533.00;5044686;28;20481;-71
2024/04/04 03:28:55;;;;;;;4.43;2.57;;;10.40;98.60;;;9.77;100.00;97531.94;5030201;28;20477;-73
2024/04/04 03:31:22;;;;;;;3.73;2.80;;;10.40;98.60;;;9.77;100.00;97537.34;5042922;28;20531;-72
2024/04/04 03:33:51;;;;;;;2.77;2.10;;;10.40;98.50;;;9.39;100.00;97473.59;5044117;28;21301;-71
2024/04/04 03:36:17;;;;;;;3.33;2.93;;;10.40;98.70;;;9.87;100.00;97529.59;5037627;28;20583;-73
2024/04/04 03:38:44;;;;;;;2.93;2.30;;;10.50;98.80;;;9.94;100.00;97528.72;5042492;28;20484;-73
2024/04/04 03:41:13;;;;;;;2.93;2.50;;;10.50;98.40;;;9.90;100.00;97529.13;5045272;28;20560;-72
2024/04/04 03:43:40;;;;;;;6.20;2.63;;;10.50;97.70;;;9.86;100.00;97532.53;5041831;28;20469;-74
2024/04/04 03:46:07;;;;;;;2.90;2.43;;;10.60;97.20;;;9.94;100.00;97520.59;5042206;28;20495;-73
2024/04/04 03:48:35;;;;;;;3.00;2.47;;;10.60;97.70;;;9.77;100.00;97507.66;5044894;28;21259;-74
2024/04/04 03:51:02;;;;;;;4.53;2.70;;;10.50;97.30;;;9.63;100.00;97513.22;5045062;28;20476;-73
2024/04/04 03:53:29;;;;;;;2.20;2.00;;;10.30;97.40;;;9.52;100.00;97516.63;5052657;28;20475;-73
2024/04/04 03:55:56;;;;;;;3.00;2.80;;;10.20;97.80;;;9.35;100.00;97502.88;5036943;28;20476;-73
2024/04/04 03:58:24;;;;;;;2.73;2.50;;;10.10;99.00;;;9.19;100.00;97502.38;5038826;28;20875;-72
2024/04/04 04:00:51;;;;;;;7.00;2.90;;;10.00;99.50;;;9.25;100.00;97511.44;5038516;28;20910;-73
2024/04/04 04:03:18;;;;;;;3.23;2.93;;;9.90;99.90;;;9.22;100.00;97517.28;5038569;28;21076;-72
2024/04/04 04:05:47;;;;;;;3.10;2.90;;;9.90;99.90;;;9.20;100.00;97519.38;5028957;28;20957;-71
2024/04/04 04:08:15;;;;;;;3.30;3.00;;;9.90;99.90;;;9.16;100.00;97527.06;5041007;28;20537;-71
2024/04/04 04:10:42;;;;;;;3.40;3.10;;;9.80;99.90;;;9.27;100.00;97530.94;5036156;28;20993;-70
2024/04/04 04:13:09;;;;;;;4.90;3.47;;;9.90;99.90;;;9.37;100.00;97525.03;5038592;28;20477;-72
2024/04/04 04:15:38;;;;;;;3.57;3.17;;;10.00;99.90;;;9.28;100.00;97520.97;5040240;28;20482;-71
2024/04/04 04:18:04;;;;;;;3.40;3.10;;;10.00;99.90;;;9.32;100.00;97532.97;5041506;28;20484;-72
2024/04/04 04:23:17;;;;;;;5.13;3.70;;;10.10;99.90;;;9.53;100.00;97528.22;5040474;28;21113;-72
2024/04/04 04:25:44;;;;;;;3.37;2.90;;;10.10;99.90;;;9.51;100.00;97528.47;5028676;28;20481;-72
2024/04/04 04:28:10;;;;;;;4.60;3.23;;;10.20;99.90;;;9.66;100.00;97527.31;5036436;28;20478;-72
2024/04/04 04:30:38;;;;;;;3.10;2.80;;;10.30;99.90;;;9.77;100.00;97529.25;5033553;28;20572;-73
2024/04/04 04:33:07;;;;;;;3.43;3.13;;;10.40;99.70;;;9.78;100.00;97525.50;5028746;28;20490;-72
2024/04/04 04:35:34;;;;;;;4.90;3.63;;;10.40;98.90;;;9.84;100.00;97538.13;5041104;28;20477;-72
2024/04/04 04:38:00;;;;;;;3.27;3.00;;;10.50;98.30;;;9.78;100.00;97528.22;5030378;28;21212;-72
2024/04/04 04:40:27;;;;;;;5.97;3.87;;;10.50;97.90;;;9.73;100.00;97533.44;5038875;28;21276;-73
2024/04/04 04:42:53;;;;;;;5.43;3.70;;;10.50;97.80;;;9.80;100.00;97539.63;5042152;28;20487;-72
2024/04/04 04:45:21;;;;;;;4.20;3.80;;;10.50;98.30;;;9.84;100.00;97540.81;5041245;28;20584;-72
2024/04/04 04:47:48;;;;;;;4.70;3.40;;;10.50;98.70;;;9.98;100.00;97529.91;5032525;28;20486;-72
2024/04/04 04:50:16;;;;;;;4.20;3.80;;;10.60;99.00;;;9.86;100.00;97533.34;5042735;28;20482;-73
2024/04/04 04:52:42;;;;;;;5.37;4.87;;;10.60;98.20;;;9.79;100.00;97527.19;5040721;28;20987;-72
2024/04/04 04:55:09;;;;;;;6.37;4.67;;;10.60;98.50;;;9.87;100.00;97529.59;5037503;28;20478;-73
2024/04/04 04:57:36;;;;;;;7.53;4.50;;;10.50;98.60;;;9.79;100.00;97551.47;5041567;28;20460;-72
2024/04/04 05:00:09;;;;;;;7.67;4.40;;;10.50;98.80;;;9.45;100.00;97467.31;5044752;28;20584;-72
2024/04/04 05:02:36;;;;;;;5.60;4.60;;;10.40;99.70;;;9.85;100.00;97530.84;5035951;28;20485;-72
2024/04/04 05:05:15;;;;;;;5.57;4.30;;;10.40;99.90;;;9.89;100.00;97534.75;5032887;28;20485;-73
2024/04/04 05:07:42;;;;;;;7.00;5.33;;;10.50;99.90;;;9.76;100.00;97538.41;5047537;28;20474;-74
2024/04/04 05:10:09;;;;;;;4.73;3.87;;;10.50;99.90;;;9.87;100.00;97534.97;5046457;28;20569;-72
2024/04/04 05:12:36;;;;;;;6.23;4.60;;;10.50;99.90;;;9.83;100.00;97523.00;5046003;28;20472;-74
2024/04/04 05:15:04;;;;;;;4.77;4.07;;;10.50;99.90;;;9.82;100.00;97524.03;5043363;28;20481;-75
2024/04/04 05:17:32;;;;;;;5.27;4.47;;;10.50;99.70;;;9.82;100.00;97521.34;5051892;28;20585;-70
2024/04/04 05:19:59;;;;;;;4.80;3.63;;;10.50;99.80;;;9.77;100.00;97518.47;5040319;28;20490;-71
2024/04/04 05:22:28;;;;;;;3.77;3.40;;;10.50;99.70;;;9.75;100.00;97525.97;5046597;28;21163;-71
2024/04/04 05:24:56;;;;;;;5.20;4.20;;;10.50;99.60;;;9.61;100.00;97514.47;5037598;28;20466;-72
2024/04/04 05:27:23;;;;;;;4.40;4.00;;;10.40;99.90;;;9.84;100.00;97521.09;5046031;28;20988;-69
2024/04/04 05:29:53;;;;;;;5.40;4.27;;;10.40;99.90;;;9.84;100.00;97524.63;5041476;28;20518;-69
2024/04/04 05:32:19;;;;;;;4.13;3.83;;;10.50;99.90;;;9.78;100.00;97530.91;5042202;28;20997;-71
2024/04/04 05:34:48;;;;;;;6.13;4.23;;;10.50;99.90;;;9.80;100.00;97518.03;5039057;28;21045;-71
2024/04/04 05:37:15;;;;;;;5.07;4.07;;;10.50;99.90;;;9.88;100.00;97530.41;5040252;28;20473;-70
2024/04/04 05:39:43;;;;;;;4.33;3.93;;;10.50;99.90;;;9.98;100.00;97529.91;5041323;28;21316;-71
2024/04/04 05:42:10;;;;;;;5.73;4.17;;;10.60;99.90;;;10.17;100.00;97534.25;5036146;28;20468;-69
2024/04/04 05:44:37;;;;;;;4.23;3.93;;;10.70;99.70;;;10.33;100.00;97538.25;5033609;28;20481;-71
2024/04/04 05:47:04;;;;;;;5.87;4.20;;;10.90;98.80;;;10.21;100.00;97521.94;5037779;28;20819;-70
2024/04/04 05:49:31;;;;;;;3.70;3.40;;;11.00;98.00;;;10.30;100.00;97516.25;5040598;28;20626;-69
2024/04/04 05:51:58;;;;;;;6.23;2.97;;;11.00;97.70;;;10.39;100.00;97525.72;5042928;28;20560;-70
2024/04/04 05:54:26;;;;;;;3.57;3.00;;;11.10;96.70;;;10.38;100.00;97521.34;5037367;28;20480;-70
2024/04/04 05:56:54;;;;;;;5.13;3.70;;;11.10;96.50;;;10.34;100.00;97529.09;5034125;28;20481;-72
2024/04/04 05:59:22;;;;;;;4.67;3.43;;;11.00;96.90;;;10.09;100.00;97529.16;5041196;28;20497;-73
2024/04/04 06:01:48;;;;;;;3.87;3.57;;;10.90;96.90;;;10.25;100.00;97532.31;5043648;28;20488;-71
2024/04/04 06:04:16;;;;;;;8.10;3.83;;;10.90;97.40;;;10.13;100.00;97526.81;5038276;28;20483;-71
2024/04/04 06:06:44;;;;;;;5.40;3.50;;;10.90;97.60;;;10.30;100.00;97529.75;5042094;28;20534;-68
2024/04/04 06:09:13;;;;;;;6.07;3.50;;;10.90;98.30;;;10.14;100.00;97537.41;5041658;28;20947;-69
2024/04/04 06:11:40;;;;;;;6.30;3.30;;;10.90;97.70;;;10.35;100.00;97519.09;5035305;28;20919;-72
2024/04/04 06:14:09;;;;;;;4.23;3.03;;;11.00;98.20;;;10.48;100.00;97523.56;5034026;28;20481;-70
2024/04/04 06:16:36;;;;;;;3.90;3.03;;;11.10;96.90;;;10.58;100.00;97523.81;5042892;28;20465;-70
2024/04/04 06:19:03;;;;;;;8.67;2.80;;;11.20;96.00;;;10.65;100.00;97526.44;5041406;28;20566;-70
2024/04/04 06:21:29;;;;;;;2.90;2.63;;;11.30;95.50;;;10.85;100.00;97526.19;5041401;28;20480;-69
2024/04/04 06:23:57;;;;;;;4.70;2.93;;;11.40;94.80;;;11.07;99.91;97524.84;5040286;28;21016;-69
2024/04/04 06:26:26;;;;;;;2.90;2.67;;;11.50;94.30;;;11.23;96.66;97529.59;5042971;28;20509;-69
2024/04/04 06:28:54;;;;;;;2.90;2.30;;;11.80;92.90;;;11.48;94.80;97523.16;5039322;28;20497;-70
2024/04/04 06:31:21;;;;;;;3.00;2.20;;;12.00;92.20;;;11.45;93.59;97537.97;5041728;28;20845;-69
2024/04/04 06:33:49;;;;;;;2.77;2.03;;;12.10;91.40;;;11.32;94.23;97539.03;5037777;28;20485;-70
2024/04/04 06:36:16;;;;;;;2.33;2.00;;;12.10;91.20;;;11.34;94.60;97534.19;5032762;28;20468;-70
2024/04/04 06:38:43;;;;;;;3.67;2.07;;;12.10;91.20;;;11.37;93.51;97534.78;5040743;28;20498;-71
2024/04/04 06:41:09;;;;;;;4.27;2.10;;;12.10;91.00;;;11.19;93.69;97531.09;5040651;28;20496;-70
2024/04/04 06:43:37;;;;;;;1.87;1.77;;;12.00;90.70;;;11.43;92.74;97529.28;5035998;28;20489;-70
2024/04/04 06:46:04;;;;;;;2.93;2.30;;;12.10;90.70;;;11.76;91.64;97527.88;5042620;28;20473;-70
2024/04/04 06:48:40;;;;;;;3.13;2.07;;;12.40;90.60;;;11.98;89.35;97523.75;5041070;28;20476;-70
2024/04/04 06:51:07;;;;;;;2.60;1.80;;;12.60;90.10;;;12.20;87.26;97521.28;5035886;28;20495;-70
2024/04/04 06:53:38;;;;;;;3.10;1.70;;;12.80;89.20;;;12.50;84.36;97527.56;5038034;28;20568;-72
2024/04/04 06:56:05;;;;;;;2.93;1.40;;;13.20;87.90;;;12.60;84.30;97514.25;5054140;28;21111;-70
2024/04/04 06:58:33;;;;;;;3.90;1.97;;;13.30;87.50;;;12.49;84.20;97520.50;5041369;28;20571;-70
2024/04/04 07:01:00;;;;;;;3.63;1.30;;;13.30;86.90;;;12.53;83.13;97529.81;5038043;28;20547;-71
2024/04/04 07:03:30;;;;;;;1.77;1.37;;;13.30;86.50;;;12.51;83.54;97534.63;5036554;28;20595;-72
2024/04/04 07:05:58;;;;;;;2.43;1.90;;;13.30;86.60;;;12.61;82.88;97526.72;5037531;28;20480;-71
2024/04/04 07:08:25;;;;;;;4.97;1.73;;;13.30;86.30;;;12.55;82.33;97533.13;5042912;28;20465;-72
2024/04/04 07:10:59;;;;;;;5.07;1.20;;;13.30;86.00;;;12.66;82.07;97529.56;5041636;28;20495;-70
2024/04/04 07:13:26;;;;;;;1.37;1.27;;;13.40;86.10;;;12.89;81.24;97523.22;5033962;28;20477;-70
2024/04/04 07:16:02;;;;;;;3.13;1.20;;;13.40;85.90;;;12.85;81.10;97526.66;5041176;28;21057;-71
2024/04/04 07:18:32;;;;;;;3.57;1.47;;;13.60;85.70;;;13.22;80.08;97523.50;5055057;28;20481;-71
2024/04/04 07:21:00;;;;;;;3.20;1.30;;;13.90;85.50;;;13.41;78.56;97532.25;5025379;28;20574;-70
2024/04/04 07:23:27;;;;;;;3.00;1.40;;;14.00;84.90;;;13.81;76.18;97530.47;5036906;28;21214;-70
2024/04/04 07:25:55;;;;;;;2.03;0.80;;;14.30;84.30;;;13.84;74.45;97535.38;5040161;28;20569;-72
2024/04/04 07:28:23;;;;;;;2.60;1.03;;;14.40;83.10;;;14.03;74.39;97530.50;5041319;28;20473;-69
2024/04/04 07:30:49;;;;;;;1.70;0.97;;;14.60;83.30;;;14.16;72.69;97517.66;5039157;28;20477;-70
2024/04/04 07:33:16;;;;;;;2.17;1.20;;;14.70;82.30;;;14.22;72.92;97513.09;5056302;28;20490;-71
2024/04/04 07:35:44;;;;;;;1.37;1.00;;;14.70;82.30;;;14.31;72.70;97525.16;5040179;28;20989;-78
2024/04/04 07:38:14;;;;;;;1.80;1.10;;;14.90;82.00;;;14.05;72.15;97530.28;5039447;28;21152;-69
2024/04/04 07:40:42;;;;;;;3.47;1.20;;;14.90;81.30;;;13.88;72.82;97536.56;5040042;28;20575;-72
2024/04/04 07:43:10;;;;;;;1.23;1.00;;;14.70;81.10;;;14.21;71.86;97525.03;5034239;28;20563;-76
2024/04/04 07:45:38;;;;;;;1.93;1.23;;;14.80;81.10;;;14.57;70.61;97514.63;5039018;28;20466;-78
2024/04/04 07:48:08;;;;;;;3.57;1.13;;;15.10;81.00;;;14.34;70.76;97516.53;5036611;28;20471;-70
2024/04/04 07:50:34;;;;;;;2.17;1.20;;;15.10;80.30;;;14.25;70.99;97515.31;5041778;28;20502;-71
2024/04/04 07:53:02;;;;;;;1.23;0.80;;;15.10;80.40;;;13.74;72.05;97510.81;5038116;28;20479;-77
2024/04/04 07:55:30;;;;;;;2.30;1.00;;;14.70;80.30;;;13.74;73.15;97505.38;5040436;28;20483;-74
2024/04/04 07:57:59;;;;;;;1.63;1.03;;;14.50;81.00;;;13.73;71.67;97454.88;5041394;28;20500;-67
2024/04/04 08:00:25;;;;;;;3.90;1.30;;;14.50;80.80;;;13.92;70.83;97498.03;5040342;28;20575;-69
2024/04/04 08:02:53;;;;;;;1.90;1.20;;;14.70;80.10;;;14.64;69.51;97509.00;5035812;28;20520;-68
2024/04/04 08:05:20;;;;;;;1.80;0.80;;;15.10;80.20;;;14.55;67.81;97460.50;5034059;28;20535;-68
2024/04/04 08:07:47;;;;;;;2.63;1.33;;;15.40;79.50;;;15.13;67.42;97510.91;5034763;28;20481;-65
2024/04/04 08:10:17;;;;;;;1.43;0.90;;;15.80;79.40;;;14.56;68.66;97504.81;5038933;28;20947;-64
2024/04/04 08:12:47;;;;;;;1.50;1.00;;;15.50;78.80;;;14.55;69.50;97508.63;5035181;28;20485;-67
2024/04/04 08:15:14;;;;;;;3.33;1.00;;;15.20;79.10;;;14.44;68.77;97519.34;5043929;28;20904;-65
2024/04/04 08:17:42;;;;;;;1.90;0.90;;;15.10;78.70;;;14.32;68.02;97510.50;5041525;28;20485;-71
2024/04/04 08:20:14;;;;;;;2.27;0.90;;;15.00;78.30;;;14.46;68.13;97530.00;5051926;28;21049;-66
2024/04/04 08:22:42;;;;;;;2.07;0.83;;;15.10;78.70;;;14.41;68.56;97519.88;5039210;28;20879;-80
2024/04/04 08:25:08;;;;;;;2.57;1.40;;;15.00;78.60;;;14.60;68.52;97527.69;5036333;28;20473;-67
2024/04/04 08:27:39;;;;;;;2.70;0.90;;;15.10;78.90;;;14.94;66.91;97538.47;5041962;28;20531;-77
2024/04/04 08:30:09;;;;;;;1.80;0.90;;;15.40;78.30;;;14.80;66.70;97542.66;5058042;28;21179;-69
2024/04/04 08:32:37;;;;;;;2.10;1.10;;;15.50;77.60;;;14.63;67.57;97543.50;5041930;28;20469;-69
2024/04/04 08:35:06;;;;;;;4.00;1.00;;;15.40;77.80;;;14.55;68.57;97541.22;5041023;28;20550;-71
2024/04/04 08:37:36;;;;;;;1.83;0.77;;;15.30;78.30;;;14.75;67.09;97539.84;5045084;28;20481;-67
2024/04/04 08:40:10;;;;;;;2.33;0.90;;;15.40;77.90;;;14.99;65.09;97543.09;5044508;28;20582;-70
2024/04/04 08:42:38;;;;;;;2.20;1.00;;;15.60;76.90;;;15.05;65.15;97533.09;5042156;28;20597;-66
2024/04/04 08:45:15;;;;;;;1.10;0.83;;;15.60;76.80;;;15.19;65.44;97553.38;5041814;28;20563;-67
2024/04/04 08:47:46;;;;;;;1.70;0.73;;;15.80;76.80;;;14.90;65.05;97547.38;5040837;28;20921;-72
2024/04/04 08:50:16;;;;;;;3.37;0.90;;;15.70;76.40;;;15.09;64.86;97551.38;5042860;28;20490;-69
2024/04/04 08:52:46;;;;;;;3.47;0.80;;;15.60;76.70;;;15.15;64.78;97555.00;5042379;28;20488;-72
2024/04/04 08:55:15;;;;;;;2.20;0.80;;;15.60;76.70;;;15.58;63.21;97542.31;5037578;28;21161;-69
2024/04/04 08:57:47;;;;;;;2.23;0.97;;;16.10;76.30;;;15.73;63.01;97540.81;5037769;28;20530;-73
2024/04/04 09:00:20;;;;;;;2.20;1.33;;;16.20;76.10;;;16.19;61.27;97531.31;5044147;28;20537;-69
2024/04/04 09:02:50;;;;;;;1.87;1.00;;;16.60;75.50;;;15.84;62.82;97534.31;5023463;28;20493;-71
2024/04/04 09:05:16;;;;;;;3.23;1.20;;;16.50;75.40;;;15.86;61.73;97531.34;5034776;28;20496;-69
2024/04/04 09:07:46;;;;;;;2.00;1.40;;;16.50;74.80;;;15.97;61.28;97526.81;5040568;28;20841;-71
2024/04/04 09:10:17;;;;;;;4.70;1.10;;;16.60;74.80;;;15.81;62.05;97523.97;5043594;28;20979;-66
2024/04/04 09:12:46;;;;;;;2.87;1.30;;;16.50;74.80;;;15.71;62.23;97537.53;5036327;28;20565;-73
2024/04/04 09:15:16;;;;;;;1.70;1.00;;;16.40;74.70;;;15.39;63.45;97535.59;5042651;28;20470;-68
2024/04/04 09:17:46;;;;;;;3.90;0.87;;;16.20;74.90;;;15.90;62.44;97542.59;5041224;28;20581;-72
2024/04/04 09:20:18;;;;;;;6.23;1.67;;;16.20;75.00;;;15.82;62.37;97536.50;5044012;28;20579;-67
2024/04/04 09:22:54;;;;;;;2.30;1.23;;;16.40;74.80;;;15.84;61.87;97542.50;5041717;28;20951;-71
2024/04/04 09:25:22;;;;;;;3.13;1.30;;;16.50;74.50;;;15.52;61.90;97542.53;5041200;28;20886;-70
2024/04/04 09:27:50;;;;;;;3.00;0.90;;;16.40;74.00;;;15.20;63.68;97555.03;5060094;28;21180;-68
2024/04/04 09:30:24;;;;;;;3.30;0.87;;;16.00;74.50;;;15.25;64.66;97544.22;5041256;28;20822;-67
2024/04/04 09:32:53;;;;;;;4.80;0.90;;;15.80;75.50;;;15.37;64.15;97544.03;5036872;28;20505;-70
2024/04/04 09:35:23;;;;;;;2.47;1.00;;;15.90;75.50;;;15.27;64.18;97541.22;5041145;28;20502;-70
2024/04/04 09:37:52;;;;;;;3.17;1.00;;;15.90;75.50;;;14.99;65.41;97541.22;5043881;28;20479;-70
2024/04/04 09:40:19;;;;;;;2.67;1.20;;;15.70;75.70;;;14.98;65.85;97550.47;5042692;28;20493;-68
2024/04/04 09:42:48;;;;;;;3.47;1.53;;;15.60;76.00;;;14.49;68.46;97539.53;5044926;28;20470;-70
2024/04/04 09:45:19;;;;;;;6.90;1.60;;;15.40;77.20;;;14.41;70.46;97544.31;5041199;28;20493;-69
2024/04/04 09:47:50;;;;;;;1.20;0.80;;;15.00;77.90;;;14.28;71.74;97552.84;5043218;28;20566;-69
2024/04/04 09:50:18;;;;;;;2.30;1.20;;;14.90;78.70;;;14.36;71.48;97544.28;5041059;28;20550;-70
2024/04/04 09:52:49;;;;;;;4.10;1.20;;;15.00;79.30;;;14.30;71.54;97550.69;5042867;28;20904;-69
2024/04/04 09:55:19;;;;;;;2.73;1.60;;;14.90;79.40;;;14.25;71.46;97565.03;5039227;28;20565;-69
2024/04/04 09:57:50;;;;;;;3.63;1.00;;;14.80;79.10;;;14.05;71.38;97565.56;5043129;28;20869;-69
2024/04/04 10:00:19;;;;;;;3.80;1.80;;;14.70;78.80;;;14.08;72.18;97562.34;5025079;28;20494;-69
2024/04/04 10:02:54;;;;;;;2.27;0.93;;;14.70;79.30;;;14.07;72.65;97582.44;5024843;28;20492;-70
2024/04/04 10:05:23;;;;;;;1.47;0.93;;;14.70;79.50;;;14.05;72.66;97573.72;5038050;28;20470;-68
2024/04/04 10:07:51;;;;;;;2.20;1.03;;;14.70;79.60;;;14.14;71.76;97569.50;5039834;28;20496;-69
2024/04/04 10:10:19;;;;;;;2.60;1.30;;;14.70;79.40;;;14.27;72.41;97572.94;5039019;28;21099;-70
2024/04/04 10:12:51;;;;;;;3.87;1.13;;;14.80;79.60;;;14.16;72.45;97570.06;5038008;28;20507;-69
2024/04/04 10:15:20;;;;;;;3.27;1.57;;;14.80;79.60;;;14.21;72.13;97574.75;5040459;28;20558;-69
2024/04/04 10:17:51;;;;;;;5.00;1.17;;;14.80;79.40;;;14.30;71.02;97578.69;5040946;28;20461;-68
2024/04/04 10:20:21;;;;;;;2.70;1.17;;;14.90;79.20;;;13.95;72.33;97576.28;5041688;28;20475;-68
2024/04/04 10:23:00;;;;;;;3.30;1.20;;;14.60;79.20;;;13.88;72.88;97577.28;5039884;28;20485;-70